createdAt,value
2022-10-24T00:00:21.272Z,100.00
2022-10-24T00:05:23.096Z,100.00
2022-10-24T00:10:24.783Z,100.00
2022-10-24T00:15:26.314Z,100.00
2022-10-24T00:20:27.903Z,100.00
2022-10-24T00:25:29.423Z,100.00
2022-10-24T00:30:31.069Z,100.00
2022-10-24T00:35:32.660Z,100.00
2022-10-24T00:40:34.215Z,100.00
2022-10-24T00:45:44.683Z,100.00
2022-10-24T00:50:47.022Z,100.00
2022-10-24T00:55:50.795Z,100.00
2022-10-24T01:00:52.323Z,100.00
2022-10-24T01:05:57.691Z,100.00
2022-10-24T01:11:18.313Z,100.00
2022-10-24T01:16:32.296Z,100.00
2022-10-24T01:21:46.047Z,99.99
2022-10-24T01:27:06.075Z,100.00
2022-10-24T01:32:21.920Z,100.00
2022-10-24T01:38:02.247Z,100.00
2022-10-24T01:43:09.690Z,99.74
2022-10-24T01:48:14.653Z,99.38
2022-10-24T01:53:16.852Z,98.97
2022-10-24T01:58:18.987Z,99.70
2022-10-24T02:03:46.244Z,99.67
2022-10-24T02:08:52.017Z,98.62
2022-10-24T02:13:58.164Z,99.02
2022-10-24T02:19:00.481Z,99.18
2022-10-24T02:24:14.484Z,99.43
2022-10-24T02:29:19.774Z,99.19
2022-10-24T02:34:22.406Z,98.30
2022-10-24T02:39:25.315Z,97.94
2022-10-24T02:44:27.656Z,98.32
2022-10-24T02:49:29.181Z,98.12
2022-10-24T02:54:30.764Z,97.80
2022-10-24T02:59:32.268Z,98.05
2022-10-24T03:04:33.762Z,98.68
2022-10-24T03:09:35.283Z,97.85
2022-10-24T03:14:36.844Z,98.15
2022-10-24T03:19:38.549Z,98.58
2022-10-24T03:24:44.306Z,98.56
2022-10-24T03:29:56.222Z,97.72
2022-10-24T03:34:57.704Z,97.78
2022-10-24T03:39:59.251Z,98.05
2022-10-24T03:45:00.748Z,98.01
2022-10-24T03:50:02.243Z,97.91
2022-10-24T03:55:03.914Z,98.04
2022-10-24T04:00:06.327Z,98.16
2022-10-24T04:05:08.407Z,97.76
2022-10-24T04:10:10.176Z,97.90
2022-10-24T04:15:11.674Z,97.88
2022-10-24T04:20:13.438Z,96.30
2022-10-24T04:25:15.432Z,97.27
2022-10-24T04:30:18.511Z,96.42
2022-10-24T04:35:20.078Z,96.76
2022-10-24T04:40:21.719Z,97.55
2022-10-24T04:45:23.209Z,96.22
2022-10-24T04:50:24.809Z,96.91
2022-10-24T04:55:26.433Z,95.81
2022-10-24T05:00:28.029Z,95.97
2022-10-24T05:05:29.519Z,96.04
2022-10-24T05:10:31.084Z,95.89
2022-10-24T05:15:32.730Z,95.60
2022-10-24T05:20:34.285Z,96.70
2022-10-24T05:25:35.908Z,96.16
2022-10-24T05:30:37.396Z,96.24
2022-10-24T05:35:38.968Z,96.33
2022-10-24T05:40:40.654Z,96.03
2022-10-24T05:45:42.402Z,95.77
2022-10-24T05:50:44.007Z,95.61
2022-10-24T05:55:45.568Z,95.49
2022-10-24T06:00:51.223Z,96.40
2022-10-24T06:05:55.178Z,96.46
2022-10-24T06:10:56.669Z,96.39
2022-10-24T06:15:58.165Z,95.87
2022-10-24T06:21:00.444Z,95.88
2022-10-24T06:26:01.987Z,96.40
2022-10-24T06:31:03.772Z,95.93
2022-10-24T06:36:07.788Z,95.66
2022-10-24T06:41:11.307Z,96.02
2022-10-24T06:46:14.794Z,95.91
2022-10-24T06:51:16.417Z,96.24
2022-10-24T06:56:18.258Z,96.48
2022-10-24T07:01:22.000Z,95.68
2022-10-24T07:06:26.494Z,95.61
2022-10-24T07:11:28.698Z,95.20
2022-10-24T07:16:30.247Z,94.67
2022-10-24T07:21:32.918Z,94.16
2022-10-24T07:26:34.428Z,93.75
2022-10-24T07:31:36.551Z,93.82
2022-10-24T07:36:41.436Z,93.33
2022-10-24T07:41:45.273Z,93.63
2022-10-24T07:46:46.750Z,93.45
2022-10-24T07:51:48.257Z,93.52
2022-10-24T07:56:49.782Z,93.70
2022-10-24T08:01:51.283Z,92.93
2022-10-24T08:06:52.800Z,92.63
2022-10-24T08:11:54.298Z,92.60
2022-10-24T08:16:55.782Z,93.21
2022-10-24T08:21:57.396Z,92.95
2022-10-24T08:26:59.533Z,92.85
2022-10-24T08:32:01.132Z,92.97
2022-10-24T08:37:03.387Z,93.29
2022-10-24T08:42:06.977Z,92.60
2022-10-24T08:47:27.485Z,93.30
2022-10-24T08:52:42.609Z,92.93
2022-10-24T08:57:54.914Z,92.79
2022-10-24T09:03:04.411Z,92.74
2022-10-24T09:08:27.037Z,92.21
2022-10-24T09:13:29.810Z,92.42
2022-10-24T09:18:34.599Z,92.48
2022-10-24T09:23:37.698Z,92.55
2022-10-24T09:28:39.437Z,92.77
2022-10-24T09:33:42.651Z,92.28
2022-10-24T09:38:45.074Z,92.19
2022-10-24T09:43:51.053Z,92.23
2022-10-24T09:48:54.761Z,91.79
2022-10-24T09:54:19.066Z,91.74
2022-10-24T09:59:37.746Z,91.74
2022-10-24T10:04:40.275Z,91.52
2022-10-24T10:09:56.699Z,91.43
2022-10-24T10:14:59.691Z,91.58
2022-10-24T10:20:01.225Z,91.25
2022-10-24T10:25:02.886Z,91.36
2022-10-24T10:30:14.950Z,91.36
2022-10-24T10:35:24.335Z,91.31
2022-10-24T10:40:31.411Z,91.14
2022-10-24T10:45:35.705Z,91.00
2022-10-24T10:50:43.071Z,91.33
2022-10-24T10:55:51.228Z,91.33
2022-10-24T11:01:01.615Z,91.55
2022-10-24T11:06:21.429Z,91.34
2022-10-24T11:11:31.629Z,90.66
2022-10-24T11:16:33.524Z,89.86
2022-10-24T11:21:35.306Z,88.85
2022-10-24T11:27:01.741Z,86.39
2022-10-24T11:32:29.325Z,85.79
2022-10-24T11:37:37.084Z,83.70
2022-10-24T11:43:15.876Z,84.41
2022-10-24T11:48:32.823Z,84.81
2022-10-24T11:53:39.287Z,81.98
2022-10-24T11:59:08.035Z,82.15
2022-10-24T12:04:57.852Z,80.82
2022-10-24T12:10:17.020Z,80.79
2022-10-24T12:15:32.895Z,80.53
2022-10-24T12:20:35.273Z,79.01
2022-10-24T12:25:37.735Z,79.43
2022-10-24T12:30:39.639Z,79.68
2022-10-24T12:35:41.131Z,79.40
2022-10-24T12:40:45.718Z,76.70
2022-10-24T12:45:47.255Z,76.23
2022-10-24T12:50:57.593Z,77.35
2022-10-24T12:55:58.976Z,77.79
2022-10-24T13:01:04.067Z,77.35
2022-10-24T13:06:12.259Z,76.84
2022-10-24T13:11:27.923Z,75.60
2022-10-24T13:16:40.430Z,75.86
2022-10-24T13:21:54.909Z,75.20
2022-10-24T13:26:56.715Z,74.80
2022-10-24T13:32:04.230Z,71.08
2022-10-24T13:37:24.973Z,72.02
2022-10-24T13:42:29.478Z,72.19
2022-10-24T13:47:34.725Z,72.90
2022-10-24T13:52:49.048Z,72.99
2022-10-24T13:58:01.352Z,72.58
2022-10-24T14:03:13.688Z,70.27
2022-10-24T14:08:30.633Z,71.10
2022-10-24T14:13:35.814Z,70.70
2022-10-24T14:18:39.351Z,69.70
2022-10-24T14:23:41.295Z,69.68
2022-10-24T14:28:50.571Z,69.02
2022-10-24T14:33:55.013Z,69.95
2022-10-24T14:38:58.795Z,69.02
2022-10-24T14:44:00.802Z,70.63
2022-10-24T14:49:28.340Z,70.67
2022-10-24T14:54:33.598Z,70.79
2022-10-24T14:59:39.009Z,70.61
2022-10-24T15:04:45.717Z,69.93
2022-10-24T15:10:01.843Z,70.13
2022-10-24T15:15:52.139Z,71.38
2022-10-24T15:21:12.325Z,69.48
2022-10-24T15:26:36.351Z,69.33
2022-10-24T15:31:40.762Z,70.24
2022-10-24T15:36:43.917Z,71.15
2022-10-24T15:41:45.433Z,71.10
2022-10-24T15:46:47.883Z,70.75
2022-10-24T15:51:50.659Z,69.67
2022-10-24T15:56:52.947Z,70.97
2022-10-24T16:01:56.533Z,70.10
2022-10-24T16:06:58.150Z,71.98
2022-10-24T16:11:59.698Z,70.99
2022-10-24T16:17:01.234Z,71.76
2022-10-24T16:22:02.856Z,71.24
2022-10-24T16:27:04.462Z,72.62
2022-10-24T16:32:06.114Z,72.21
2022-10-24T16:37:07.711Z,72.30
2022-10-24T16:42:09.174Z,73.13
2022-10-24T16:47:10.725Z,72.81
2022-10-24T16:52:12.614Z,73.10
2022-10-24T16:57:14.180Z,72.95
2022-10-24T17:02:17.050Z,74.60
2022-10-24T17:07:18.599Z,75.46
2022-10-24T17:12:20.134Z,74.91
2022-10-24T17:17:21.641Z,76.72
2022-10-24T17:22:23.310Z,76.42
2022-10-24T17:27:25.319Z,76.69
2022-10-24T17:32:26.932Z,76.75
2022-10-24T17:37:43.150Z,77.02
2022-10-24T17:42:48.480Z,77.26
2022-10-24T17:47:50.304Z,77.66
2022-10-24T17:52:52.155Z,78.32
2022-10-24T17:57:53.992Z,78.85
2022-10-24T18:02:55.503Z,79.90
2022-10-24T18:07:57.882Z,80.15
2022-10-24T18:18:06.172Z,81.28
2022-10-24T18:23:07.700Z,81.15
2022-10-24T18:28:09.653Z,82.03
2022-10-24T18:33:11.209Z,82.21
2022-10-24T18:38:12.772Z,83.67
2022-10-24T18:43:14.454Z,83.32
2022-10-24T18:48:16.624Z,83.78
2022-10-24T18:53:25.930Z,83.15
2022-10-24T18:58:27.491Z,83.19
2022-10-24T19:03:34.104Z,84.06
2022-10-24T19:08:35.713Z,84.50
2022-10-24T19:13:37.230Z,84.02
2022-10-24T19:18:38.772Z,84.32
2022-10-24T19:23:40.241Z,84.73
2022-10-24T19:28:41.742Z,84.70
2022-10-24T19:33:43.291Z,84.72
2022-10-24T19:38:44.785Z,85.06
2022-10-24T19:43:46.259Z,85.73
2022-10-24T19:48:53.040Z,86.01
2022-10-24T19:53:54.630Z,87.88
2022-10-24T19:58:56.261Z,87.38
2022-10-24T20:03:57.821Z,87.04
2022-10-24T20:08:59.414Z,87.49
2022-10-24T20:14:01.291Z,87.37
2022-10-24T20:19:03.831Z,88.80
2022-10-24T20:24:06.113Z,88.16
2022-10-24T20:29:07.675Z,88.73
2022-10-24T20:34:11.997Z,88.73
2022-10-24T20:39:16.020Z,88.78
2022-10-24T20:44:17.548Z,88.39
2022-10-24T20:49:19.025Z,88.38
2022-10-24T20:54:20.537Z,89.69
2022-10-24T20:59:22.863Z,88.38
2022-10-24T21:04:24.339Z,88.62
2022-10-24T21:09:25.847Z,87.69
2022-10-24T21:14:27.494Z,87.95
2022-10-24T21:19:30.389Z,87.63
2022-10-24T21:24:32.007Z,87.67
2022-10-24T21:29:34.338Z,87.96
2022-10-24T21:34:36.057Z,87.74
2022-10-24T21:39:37.555Z,88.29
2022-10-24T21:44:39.044Z,88.83
2022-10-24T21:49:40.535Z,88.98
2022-10-24T21:54:42.056Z,89.28
2022-10-24T21:59:43.565Z,88.63
2022-10-24T22:04:45.170Z,88.35
2022-10-24T22:09:46.715Z,88.46
2022-10-24T22:14:48.204Z,88.69
2022-10-24T22:19:49.692Z,88.75
2022-10-24T22:24:51.258Z,89.09
2022-10-24T22:29:52.763Z,89.21
2022-10-24T22:34:54.473Z,88.86
2022-10-24T22:39:56.185Z,89.13
2022-10-24T22:44:57.924Z,89.57
2022-10-24T22:50:37.724Z,90.82
2022-10-24T22:55:53.500Z,89.95
2022-10-24T23:00:59.954Z,90.98
2022-10-24T23:06:33.672Z,91.20
2022-10-24T23:11:35.405Z,91.70
2022-10-24T23:16:45.108Z,89.85
2022-10-24T23:22:09.275Z,90.32
2022-10-24T23:27:11.392Z,90.13
2022-10-24T23:32:34.163Z,90.22
2022-10-24T23:37:38.682Z,91.15
2022-10-24T23:42:40.749Z,90.47
2022-10-24T23:47:48.443Z,89.57
2022-10-24T23:53:31.315Z,89.02
2022-10-24T23:58:32.825Z,88.91
